createdAt,value
2023-05-19T00:01:48.567Z,6.90
2023-05-19T00:04:19.156Z,7.57
2023-05-19T00:06:53.810Z,7.15
2023-05-19T00:09:26.598Z,6.97
2023-05-19T00:11:56.973Z,6.50
2023-05-19T00:14:29.150Z,6.75
2023-05-19T00:17:02.072Z,6.70
2023-05-19T00:19:32.560Z,6.95
2023-05-19T00:22:02.317Z,7.15
2023-05-19T00:24:34.754Z,6.45
2023-05-19T00:27:04.491Z,7.03
2023-05-19T00:29:34.213Z,7.30
2023-05-19T00:32:04.087Z,7.00
2023-05-19T00:34:33.905Z,6.90
2023-05-19T00:37:03.624Z,6.75
2023-05-19T00:39:35.951Z,7.20
2023-05-19T00:42:06.060Z,7.00
2023-05-19T00:44:35.732Z,6.80
2023-05-19T00:47:05.562Z,7.47
2023-05-19T00:49:35.459Z,6.75
2023-05-19T00:52:05.298Z,6.70
2023-05-19T00:54:37.901Z,7.50
2023-05-19T00:57:08.282Z,7.22
2023-05-19T00:59:38.039Z,7.25
2023-05-19T01:02:07.999Z,7.10
2023-05-19T01:04:39.606Z,6.43
2023-05-19T01:07:10.604Z,7.30
2023-05-19T01:09:43.529Z,7.22
2023-05-19T01:12:13.738Z,6.93
2023-05-19T01:14:43.608Z,7.00
2023-05-19T01:17:17.818Z,7.20
2023-05-19T01:20:02.555Z,7.07
2023-05-19T01:22:45.669Z,6.72
2023-05-19T01:25:59.797Z,7.15
2023-05-19T01:28:35.464Z,7.55
2023-05-19T01:31:08.278Z,6.60
2023-05-19T01:33:38.971Z,6.85
2023-05-19T01:36:10.733Z,7.50
2023-05-19T01:38:41.275Z,7.80
2023-05-19T01:41:11.398Z,7.82
2023-05-19T01:43:41.590Z,7.22
2023-05-19T01:46:14.403Z,7.50
2023-05-19T01:48:45.609Z,8.18
2023-05-19T01:51:16.593Z,8.48
2023-05-19T01:53:46.498Z,8.00
2023-05-19T01:56:20.162Z,8.20
2023-05-19T01:58:51.786Z,8.80
2023-05-19T02:01:34.190Z,7.60
2023-05-19T02:04:13.376Z,8.50
2023-05-19T02:06:45.556Z,8.50
2023-05-19T02:09:19.035Z,8.10
2023-05-19T02:11:50.513Z,7.70
2023-05-19T02:14:23.866Z,7.95
2023-05-19T02:16:57.033Z,8.57
2023-05-19T02:19:28.109Z,7.60
2023-05-19T02:21:58.619Z,8.05
2023-05-19T02:24:28.508Z,8.87
2023-05-19T02:26:58.290Z,7.80
2023-05-19T02:29:28.080Z,7.53
2023-05-19T02:32:00.446Z,8.40
2023-05-19T02:34:30.194Z,9.20
2023-05-19T02:36:59.907Z,8.60
2023-05-19T02:39:35.014Z,8.32
2023-05-19T02:42:05.059Z,8.10
2023-05-19T02:44:34.793Z,9.10
2023-05-19T02:47:07.675Z,8.00
2023-05-19T02:49:38.005Z,8.75
2023-05-19T02:52:08.681Z,8.60
2023-05-19T02:54:38.500Z,8.48
2023-05-19T02:57:08.473Z,8.25
2023-05-19T02:59:38.362Z,8.43
2023-05-19T03:02:11.552Z,8.37
2023-05-19T03:04:41.902Z,7.72
2023-05-19T03:07:13.558Z,7.93
2023-05-19T03:09:43.322Z,8.13
2023-05-19T03:12:13.056Z,8.40
2023-05-19T03:14:43.910Z,7.75
2023-05-19T03:17:16.315Z,7.75
2023-05-19T03:19:46.121Z,7.75
2023-05-19T03:22:15.853Z,7.80
2023-05-19T03:24:46.104Z,7.75
2023-05-19T03:27:16.674Z,7.65
2023-05-19T03:29:46.515Z,7.95
2023-05-19T03:32:19.957Z,8.30
2023-05-19T03:34:50.063Z,7.60
2023-05-19T03:37:20.131Z,7.57
2023-05-19T03:39:49.882Z,7.70
2023-05-19T03:42:20.023Z,8.82
2023-05-19T03:44:49.784Z,8.13
2023-05-19T03:47:22.856Z,8.40
2023-05-19T03:49:55.374Z,8.02
2023-05-19T03:52:53.750Z,7.82
2023-05-19T03:55:31.828Z,7.90
2023-05-19T03:58:02.659Z,8.10
2023-05-19T04:00:32.684Z,8.80
2023-05-19T04:03:05.421Z,8.60
2023-05-19T04:05:36.735Z,8.70
2023-05-19T04:08:06.534Z,8.77
2023-05-19T04:10:36.564Z,9.20
2023-05-19T04:13:06.347Z,9.15
2023-05-19T04:15:36.530Z,8.30
2023-05-19T04:18:09.057Z,8.88
2023-05-19T04:20:38.949Z,9.03
2023-05-19T04:23:08.839Z,10.00
2023-05-19T04:25:40.944Z,8.80
2023-05-19T04:28:10.938Z,8.90
2023-05-19T04:30:40.753Z,9.40
2023-05-19T04:33:13.216Z,9.48
2023-05-19T04:35:43.974Z,9.45
2023-05-19T04:38:19.070Z,10.45
2023-05-19T04:40:52.171Z,9.40
2023-05-19T04:43:22.395Z,9.60
2023-05-19T04:45:53.598Z,9.80
2023-05-19T04:48:27.555Z,9.75
2023-05-19T04:50:57.973Z,9.40
2023-05-19T04:53:28.650Z,9.87
2023-05-19T04:55:58.785Z,9.70
2023-05-19T04:58:28.652Z,10.55
2023-05-19T05:00:58.744Z,9.57
2023-05-19T05:03:31.282Z,10.68
2023-05-19T05:06:01.482Z,10.55
2023-05-19T05:08:31.261Z,10.20
2023-05-19T05:11:02.646Z,11.38
2023-05-19T05:13:33.388Z,11.10
2023-05-19T05:16:04.824Z,11.80
2023-05-19T05:18:38.786Z,11.20
2023-05-19T05:21:10.629Z,11.70
2023-05-19T05:23:41.004Z,10.70
2023-05-19T05:26:13.800Z,11.80
2023-05-19T05:28:44.372Z,12.00
2023-05-19T05:31:14.171Z,11.77
2023-05-19T05:33:46.806Z,11.90
2023-05-19T05:36:17.889Z,11.38
2023-05-19T05:38:47.636Z,12.05
2023-05-19T05:41:18.490Z,12.38
2023-05-19T05:43:50.138Z,12.82
2023-05-19T05:46:21.077Z,11.13
2023-05-19T05:48:54.354Z,12.45
2023-05-19T05:51:25.148Z,12.82
2023-05-19T05:53:57.087Z,12.55
2023-05-19T05:56:37.152Z,11.23
2023-05-19T05:59:08.823Z,11.02
2023-05-19T06:01:38.666Z,11.70
2023-05-19T06:04:14.339Z,12.65
2023-05-19T06:06:45.311Z,12.55
2023-05-19T06:09:18.633Z,12.50
2023-05-19T06:11:48.477Z,13.38
2023-05-19T06:14:18.914Z,12.63
2023-05-19T06:17:08.899Z,12.00
2023-05-19T06:19:41.324Z,12.57
2023-05-19T06:22:11.070Z,13.20
2023-05-19T06:24:41.095Z,11.38
2023-05-19T06:27:12.472Z,11.48
2023-05-19T06:29:42.243Z,10.43
2023-05-19T06:32:12.475Z,10.43
2023-05-19T06:34:45.777Z,11.07
2023-05-19T06:37:19.685Z,10.57
2023-05-19T06:39:49.866Z,10.10
2023-05-19T06:42:22.289Z,9.77
2023-05-19T06:44:59.646Z,9.63
2023-05-19T06:47:30.393Z,9.43
2023-05-19T06:50:02.977Z,9.32
2023-05-19T06:52:37.185Z,9.50
2023-05-19T06:55:08.231Z,8.40
2023-05-19T06:57:40.624Z,8.35
2023-05-19T07:00:14.592Z,8.02
2023-05-19T07:02:49.251Z,8.15
2023-05-19T07:05:22.119Z,7.43
2023-05-19T07:07:57.538Z,6.40
2023-05-19T07:10:30.442Z,6.78
2023-05-19T07:13:00.983Z,6.88
2023-05-19T07:15:34.505Z,6.68
2023-05-19T07:18:04.259Z,6.70
2023-05-19T07:20:36.617Z,5.67
2023-05-19T07:23:07.246Z,5.40
2023-05-19T07:25:38.532Z,5.13
2023-05-19T07:28:08.309Z,5.50
2023-05-19T07:30:39.153Z,4.80
2023-05-19T07:33:09.543Z,5.50
2023-05-19T07:35:41.949Z,6.25
2023-05-19T07:38:11.758Z,4.55
2023-05-19T07:40:41.563Z,4.50
2023-05-19T07:43:11.585Z,4.88
2023-05-19T07:45:41.543Z,4.30
2023-05-19T07:48:11.463Z,4.70
2023-05-19T07:50:43.759Z,4.50
2023-05-19T07:53:13.601Z,4.40
2023-05-19T07:55:43.398Z,4.40
2023-05-19T07:58:13.085Z,4.15
2023-05-19T08:00:43.491Z,3.85
2023-05-19T08:03:13.409Z,3.40
2023-05-19T08:05:46.151Z,3.50
2023-05-19T08:08:17.003Z,3.95
2023-05-19T08:10:46.833Z,3.20
2023-05-19T08:13:16.519Z,3.80
2023-05-19T08:15:46.403Z,3.70
2023-05-19T08:18:16.117Z,4.20
2023-05-19T08:20:48.842Z,3.40
2023-05-19T08:23:18.627Z,3.25
2023-05-19T08:25:48.534Z,3.42
2023-05-19T08:28:18.324Z,3.58
2023-05-19T08:30:48.037Z,3.45
2023-05-19T08:33:17.750Z,3.50
2023-05-19T08:35:50.770Z,3.83
2023-05-19T08:38:20.961Z,2.88
2023-05-19T08:40:51.157Z,3.50
2023-05-19T08:43:20.952Z,3.20
2023-05-19T08:45:50.646Z,3.00
2023-05-19T08:48:21.624Z,2.92
2023-05-19T08:51:02.940Z,2.90
2023-05-19T08:53:39.856Z,3.05
2023-05-19T08:56:13.748Z,3.40
2023-05-19T08:58:44.461Z,3.00
2023-05-19T09:01:17.236Z,2.60
2023-05-19T09:03:50.192Z,2.80
2023-05-19T09:06:22.928Z,3.05
2023-05-19T09:08:52.760Z,2.78
2023-05-19T09:11:22.673Z,2.67
2023-05-19T09:13:52.598Z,3.00
2023-05-19T09:16:22.534Z,3.10
2023-05-19T09:19:01.846Z,2.50
2023-05-19T09:21:34.560Z,3.00
2023-05-19T09:24:08.473Z,2.60
2023-05-19T09:26:42.301Z,2.80
2023-05-19T09:29:16.161Z,2.60
2023-05-19T09:31:52.728Z,3.10
2023-05-19T09:34:24.911Z,2.60
2023-05-19T09:36:58.112Z,2.40
2023-05-19T09:39:29.017Z,3.00
2023-05-19T09:41:59.635Z,3.40
2023-05-19T09:44:31.444Z,3.30
2023-05-19T09:47:02.369Z,2.65
2023-05-19T09:49:33.104Z,2.75
2023-05-19T09:52:06.539Z,2.90
2023-05-19T09:54:37.723Z,2.88
2023-05-19T09:57:08.945Z,3.00
2023-05-19T09:59:39.201Z,3.15
2023-05-19T10:02:09.187Z,3.80
2023-05-19T10:04:39.360Z,2.53
2023-05-19T10:07:13.176Z,2.95
2023-05-19T10:09:44.158Z,2.95
2023-05-19T10:12:14.378Z,2.50
2023-05-19T10:14:44.371Z,2.55
2023-05-19T10:17:14.534Z,2.53
2023-05-19T10:19:44.404Z,2.40
2023-05-19T10:22:16.760Z,2.40
2023-05-19T10:24:46.520Z,3.00
2023-05-19T10:27:17.423Z,2.50
2023-05-19T10:29:52.083Z,2.65
2023-05-19T10:32:25.273Z,2.83
2023-05-19T10:35:24.542Z,2.60
2023-05-19T10:38:01.656Z,2.40
2023-05-19T10:40:35.916Z,2.50
2023-05-19T10:43:14.558Z,2.80
2023-05-19T10:45:49.213Z,3.45
2023-05-19T10:48:19.357Z,2.80
2023-05-19T10:50:49.649Z,2.50
2023-05-19T10:53:23.086Z,2.42
2023-05-19T10:55:59.244Z,3.07
2023-05-19T10:58:52.304Z,2.90
2023-05-19T11:01:25.002Z,3.10
2023-05-19T11:03:57.612Z,2.90
2023-05-19T11:06:29.798Z,3.00
2023-05-19T11:09:05.026Z,2.97
2023-05-19T11:11:48.264Z,2.88
2023-05-19T11:14:19.844Z,2.67
2023-05-19T11:16:50.515Z,2.90
2023-05-19T11:19:22.297Z,2.80
2023-05-19T11:21:55.159Z,2.90
2023-05-19T11:24:40.763Z,2.90
2023-05-19T11:27:23.473Z,2.80
2023-05-19T11:29:54.083Z,2.53
2023-05-19T11:32:24.397Z,2.88
2023-05-19T11:34:54.905Z,3.67
2023-05-19T11:37:24.944Z,3.00
2023-05-19T11:39:57.339Z,2.70
2023-05-19T11:42:27.233Z,3.00
2023-05-19T11:44:58.541Z,2.78
2023-05-19T11:47:28.907Z,2.60
2023-05-19T11:49:59.485Z,2.97
2023-05-19T11:52:30.677Z,2.43
2023-05-19T11:55:05.514Z,2.80
2023-05-19T11:57:35.252Z,2.90
2023-05-19T12:00:09.139Z,3.58
2023-05-19T12:02:39.089Z,3.00
2023-05-19T12:05:21.906Z,2.80
2023-05-19T12:07:52.396Z,2.70
2023-05-19T12:10:25.724Z,2.72
2023-05-19T12:12:56.130Z,2.80
2023-05-19T12:15:27.175Z,2.53
2023-05-19T12:18:00.496Z,3.05
2023-05-19T12:20:32.100Z,2.83
2023-05-19T12:23:02.074Z,2.50
2023-05-19T12:25:34.943Z,3.60
2023-05-19T12:28:05.739Z,3.30
2023-05-19T12:30:36.030Z,2.53
2023-05-19T12:33:06.136Z,2.50
2023-05-19T12:35:36.556Z,2.92
2023-05-19T12:38:07.461Z,3.17
2023-05-19T12:40:40.287Z,3.20
2023-05-19T12:43:10.632Z,3.30
2023-05-19T12:45:40.774Z,3.50
2023-05-19T12:48:16.205Z,3.50
2023-05-19T12:50:47.045Z,3.10
2023-05-19T12:53:19.276Z,2.70
2023-05-19T12:55:55.601Z,2.70
2023-05-19T12:58:25.636Z,3.00
2023-05-19T13:01:01.625Z,3.00
2023-05-19T13:03:31.621Z,3.20
2023-05-19T13:06:02.017Z,2.97
2023-05-19T13:08:32.055Z,2.63
2023-05-19T13:11:04.579Z,2.50
2023-05-19T13:13:34.983Z,3.30
2023-05-19T13:16:04.849Z,2.95
2023-05-19T13:18:37.849Z,2.53
2023-05-19T13:21:08.327Z,2.80
2023-05-19T13:23:38.037Z,3.00
2023-05-19T13:26:12.779Z,2.53
2023-05-19T13:28:42.562Z,2.90
2023-05-19T13:31:12.328Z,2.47
2023-05-19T13:33:42.301Z,2.60
2023-05-19T13:36:12.125Z,2.80
2023-05-19T13:38:42.086Z,2.22
2023-05-19T13:41:16.035Z,2.58
2023-05-19T13:43:46.077Z,2.30
2023-05-19T13:46:15.861Z,2.70
2023-05-19T13:48:45.573Z,2.60
2023-05-19T13:51:15.374Z,2.38
2023-05-19T13:53:45.199Z,2.40
2023-05-19T13:56:17.633Z,2.60
2023-05-19T13:58:47.894Z,2.55
2023-05-19T14:01:17.685Z,2.57
2023-05-19T14:03:47.464Z,2.50
2023-05-19T14:06:17.276Z,2.78
2023-05-19T14:08:48.156Z,2.50
2023-05-19T14:11:23.510Z,2.40
2023-05-19T14:13:53.470Z,2.70
2023-05-19T14:16:26.249Z,2.30
2023-05-19T14:18:56.191Z,2.40
2023-05-19T14:21:26.000Z,2.38
2023-05-19T14:23:55.777Z,2.30
2023-05-19T14:26:29.397Z,2.60
2023-05-19T14:28:59.776Z,2.35
2023-05-19T14:31:29.542Z,2.10
2023-05-19T14:33:59.282Z,2.40
2023-05-19T14:36:29.029Z,2.10
2023-05-19T14:38:58.768Z,2.20
2023-05-19T14:41:31.294Z,2.20
2023-05-19T14:44:01.013Z,2.40
2023-05-19T14:46:30.779Z,2.40
2023-05-19T14:49:00.735Z,2.70
2023-05-19T14:51:30.444Z,2.10
2023-05-19T14:54:00.365Z,2.28
2023-05-19T14:56:32.733Z,2.50
2023-05-19T14:59:04.520Z,2.60
2023-05-19T15:01:34.374Z,2.30
2023-05-19T15:04:04.152Z,2.60
2023-05-19T15:06:34.001Z,2.50
2023-05-19T15:09:04.182Z,2.20
2023-05-19T15:11:36.790Z,2.30
2023-05-19T15:14:06.598Z,2.65
2023-05-19T15:16:36.379Z,2.30
2023-05-19T15:19:06.133Z,2.40
2023-05-19T15:21:35.863Z,2.60
2023-05-19T15:24:05.588Z,2.22
2023-05-19T15:26:37.944Z,2.33
2023-05-19T15:29:07.672Z,2.15
2023-05-19T15:31:38.433Z,2.33
2023-05-19T15:34:08.452Z,2.55
2023-05-19T15:36:38.183Z,2.80
2023-05-19T15:39:07.925Z,2.67
2023-05-19T15:41:40.262Z,2.70
2023-05-19T15:44:10.042Z,2.40
2023-05-19T15:46:39.849Z,2.67
2023-05-19T15:49:09.554Z,2.58
2023-05-19T15:51:42.823Z,2.72
2023-05-19T15:54:12.555Z,2.60
2023-05-19T15:56:44.909Z,2.50
2023-05-19T15:59:14.668Z,2.50
2023-05-19T16:01:44.829Z,2.53
2023-05-19T16:04:15.029Z,2.70
2023-05-19T16:06:45.196Z,2.65
2023-05-19T16:09:14.908Z,2.35
2023-05-19T16:11:47.393Z,2.53
2023-05-19T16:14:17.224Z,2.40
2023-05-19T16:16:47.393Z,2.70
2023-05-19T16:19:17.355Z,2.35
2023-05-19T16:21:47.081Z,2.90
2023-05-19T16:24:16.832Z,2.50
2023-05-19T16:26:49.161Z,2.78
2023-05-19T16:29:18.995Z,2.40
2023-05-19T16:31:48.756Z,2.72
2023-05-19T16:34:18.974Z,2.60
2023-05-19T16:36:48.703Z,2.45
2023-05-19T16:39:18.474Z,2.50
2023-05-19T16:41:50.936Z,2.42
2023-05-19T16:44:21.005Z,2.60
2023-05-19T16:46:50.782Z,2.70
2023-05-19T16:49:20.452Z,2.70
2023-05-19T16:51:50.213Z,2.28
2023-05-19T16:54:19.952Z,2.50
2023-05-19T16:56:52.842Z,2.40
2023-05-19T16:59:22.717Z,2.50
2023-05-19T17:01:52.531Z,2.60
2023-05-19T17:04:22.229Z,2.90
2023-05-19T17:06:52.188Z,2.40
2023-05-19T17:09:25.468Z,2.40
2023-05-19T17:11:58.525Z,2.70
2023-05-19T17:14:28.857Z,2.60
2023-05-19T17:16:58.902Z,2.50
2023-05-19T17:19:28.907Z,2.90
2023-05-19T17:21:58.746Z,2.38
2023-05-19T17:24:28.947Z,2.60
2023-05-19T17:27:01.226Z,2.30
2023-05-19T17:29:31.008Z,2.35
2023-05-19T17:32:00.764Z,2.70
2023-05-19T17:34:30.813Z,2.78
2023-05-19T17:37:00.569Z,2.80
2023-05-19T17:39:30.285Z,2.50
2023-05-19T17:42:02.782Z,2.70
2023-05-19T17:44:32.575Z,2.30
2023-05-19T17:47:02.577Z,2.40
2023-05-19T17:49:32.339Z,2.73
2023-05-19T17:52:02.693Z,2.60
2023-05-19T17:54:33.203Z,2.53
2023-05-19T17:57:06.800Z,2.60
2023-05-19T17:59:37.562Z,2.40
2023-05-19T18:02:08.210Z,2.78
2023-05-19T18:04:38.758Z,2.80
2023-05-19T18:07:10.153Z,2.70
2023-05-19T18:09:40.088Z,2.60
2023-05-19T18:12:12.733Z,3.00
2023-05-19T18:14:42.956Z,2.75
2023-05-19T18:17:12.739Z,2.80
2023-05-19T18:19:42.605Z,2.50
2023-05-19T18:22:14.974Z,2.47
2023-05-19T18:24:44.739Z,2.60
2023-05-19T18:27:17.137Z,2.60
2023-05-19T18:29:46.887Z,2.25
2023-05-19T18:32:17.921Z,2.30
2023-05-19T18:34:47.783Z,2.50
2023-05-19T18:37:17.487Z,2.35
2023-05-19T18:39:47.301Z,2.20
2023-05-19T18:42:19.644Z,2.00
2023-05-19T18:44:50.785Z,2.50
2023-05-19T18:47:22.956Z,2.20
2023-05-19T18:49:52.844Z,2.75
2023-05-19T18:52:22.538Z,2.30
2023-05-19T18:54:52.278Z,2.30
2023-05-19T18:57:24.608Z,2.60
2023-05-19T18:59:54.441Z,3.00
2023-05-19T19:02:24.210Z,9.85
2023-05-19T19:04:54.154Z,3.50
2023-05-19T19:07:24.015Z,2.58
2023-05-19T19:09:53.703Z,2.10
2023-05-19T19:12:26.335Z,4.57
2023-05-19T19:14:56.100Z,2.35
2023-05-19T19:17:26.011Z,2.13
2023-05-19T19:19:56.138Z,2.30
2023-05-19T19:22:26.336Z,2.40
2023-05-19T19:24:56.352Z,2.45
2023-05-19T19:27:31.154Z,2.30
2023-05-19T19:30:01.507Z,2.45
2023-05-19T19:32:31.603Z,2.28
2023-05-19T19:35:01.391Z,2.90
2023-05-19T19:37:31.104Z,2.90
2023-05-19T19:40:00.969Z,2.20
2023-05-19T19:42:34.300Z,3.30
2023-05-19T19:45:04.283Z,2.78
2023-05-19T19:47:34.021Z,2.60
2023-05-19T19:50:05.886Z,2.92
2023-05-19T19:52:35.791Z,4.50
2023-05-19T19:55:05.749Z,2.90
2023-05-19T19:57:38.084Z,2.75
2023-05-19T20:00:10.454Z,2.67
2023-05-19T20:02:55.312Z,2.90
2023-05-19T20:05:30.147Z,2.70
2023-05-19T20:08:00.026Z,2.20
2023-05-19T20:10:29.902Z,2.40
2023-05-19T20:13:02.246Z,2.77
2023-05-19T20:15:31.999Z,2.90
2023-05-19T20:18:01.769Z,2.50
2023-05-19T20:20:31.784Z,2.50
2023-05-19T20:23:01.632Z,2.67
2023-05-19T20:25:31.382Z,2.10
2023-05-19T20:28:04.168Z,2.20
2023-05-19T20:30:34.019Z,2.50
2023-05-19T20:33:03.949Z,2.50
2023-05-19T20:35:34.488Z,2.60
2023-05-19T20:38:05.049Z,2.80
2023-05-19T20:40:35.266Z,2.58
2023-05-19T20:43:08.018Z,2.80
2023-05-19T20:45:37.956Z,2.37
2023-05-19T20:48:08.911Z,2.92
2023-05-19T20:50:38.641Z,2.80
2023-05-19T20:53:08.570Z,2.90
2023-05-19T20:55:38.816Z,2.40
2023-05-19T20:58:11.431Z,2.00
2023-05-19T21:00:41.157Z,2.80
2023-05-19T21:03:11.660Z,1.80
2023-05-19T21:05:41.565Z,2.45
2023-05-19T21:08:12.962Z,2.40
2023-05-19T21:10:42.857Z,2.50
2023-05-19T21:13:15.254Z,2.30
2023-05-19T21:15:45.033Z,2.50
2023-05-19T21:18:15.123Z,2.58
2023-05-19T21:20:44.960Z,2.40
2023-05-19T21:23:15.476Z,2.20
2023-05-19T21:25:45.559Z,2.60
2023-05-19T21:28:18.124Z,2.40
2023-05-19T21:30:50.597Z,2.45
2023-05-19T21:33:20.372Z,2.60
2023-05-19T21:35:50.162Z,2.80
2023-05-19T21:38:23.878Z,2.92
2023-05-19T21:40:54.547Z,2.70
2023-05-19T21:43:27.014Z,2.90
2023-05-19T21:45:56.875Z,2.50
2023-05-19T21:48:27.373Z,3.20
2023-05-19T21:50:58.022Z,2.72
2023-05-19T21:53:28.382Z,2.92
2023-05-19T21:55:58.199Z,2.70
2023-05-19T21:58:30.649Z,2.80
2023-05-19T22:01:00.572Z,2.72
2023-05-19T22:03:30.334Z,2.90
2023-05-19T22:06:00.162Z,2.75
2023-05-19T22:08:29.808Z,2.70
2023-05-19T22:10:59.641Z,2.50
2023-05-19T22:13:32.117Z,2.80
2023-05-19T22:16:04.510Z,3.20
2023-05-19T22:18:34.338Z,2.95
2023-05-19T22:21:04.159Z,3.30
2023-05-19T22:23:34.002Z,3.00
2023-05-19T22:26:03.705Z,2.80
2023-05-19T22:28:36.012Z,3.70
2023-05-19T22:31:06.155Z,3.40
2023-05-19T22:33:35.979Z,2.72
2023-05-19T22:36:05.701Z,3.40
2023-05-19T22:38:35.421Z,3.80
2023-05-19T22:41:05.188Z,3.30
2023-05-19T22:43:37.520Z,3.50
2023-05-19T22:46:07.808Z,3.50
2023-05-19T22:48:37.542Z,4.00
2023-05-19T22:51:07.614Z,3.00
2023-05-19T22:53:37.329Z,4.38
2023-05-19T22:56:07.491Z,3.70
2023-05-19T22:58:39.900Z,3.70
2023-05-19T23:01:09.878Z,3.85
2023-05-19T23:03:39.594Z,3.97
2023-05-19T23:06:09.406Z,4.10
2023-05-19T23:08:39.189Z,3.60
2023-05-19T23:11:09.100Z,4.00
2023-05-19T23:13:41.707Z,4.18
2023-05-19T23:16:11.444Z,4.45
2023-05-19T23:18:41.295Z,4.00
2023-05-19T23:21:10.992Z,4.07
2023-05-19T23:23:40.665Z,3.60
2023-05-19T23:26:10.475Z,4.10
2023-05-19T23:28:42.871Z,4.50
2023-05-19T23:31:13.001Z,4.20
2023-05-19T23:33:42.856Z,4.10
2023-05-19T23:36:13.699Z,4.20
2023-05-19T23:38:43.483Z,3.85
2023-05-19T23:41:13.315Z,4.10
2023-05-19T23:43:45.867Z,4.68
2023-05-19T23:46:15.771Z,4.13
2023-05-19T23:48:45.678Z,4.10
2023-05-19T23:51:15.611Z,4.70
2023-05-19T23:53:45.656Z,4.20
2023-05-19T23:56:15.363Z,3.83
2023-05-19T23:58:47.622Z,4.03
